Portada
METAR-TAF:

METAR-TAF

Aeroports :

Fairfield Municipal Airport

Fairfield, Illinois, Estats Units d'Amèrica

latitud: 38-22-43N, longitud: 088-24-46W, altitud: 133 m

Observació

L'informe es va fer fa 26 minuts, a les 12:55 UTC
Vent 5 kt del Nord
Temperatura 16°C
Humitat 72%
Pressió 1022 hPa
Visibilitat: 16.1 km
Cel clar

METAR: KFWC 301255Z AUTO 35005KT 10SM CLR 16/11 A3019 RMK AO1 T01620109

Hora: 08:21 (13:21 UTC)


TAF: manca

Observacions i pronòstics meteorològics de més de 4000 aeroports (METAR i TAF).

Les estacions disponibles són els punts grocs i vermells al mapa.

Posi el ratolí al punt desitjat per veure el nom de l'estació.

Feu clic per veure les observacions i els pronòstics meteorològics.

Per canviar el mapa: feu clic els botons verds amb una creu de color negre per apropar; al botó verd amb un guió per allunyar la imatge; o en les fletxes verdes per a mapes adjacents.


METAR-TAF: